sensor_id;sensor_type;location;lat;lon;timestamp;temperature;humidity
61896;DHT22;47835;52.778;5.956;2023-11-18T00:00:49;1.90;99.90
61896;DHT22;47835;52.778;5.956;2023-11-18T00:03:15;1.90;99.90
61896;DHT22;47835;52.778;5.956;2023-11-18T00:05:40;1.90;99.90
61896;DHT22;47835;52.778;5.956;2023-11-18T00:08:06;1.90;99.90
61896;DHT22;47835;52.778;5.956;2023-11-18T00:10:32;1.90;99.90
61896;DHT22;47835;52.778;5.956;2023-11-18T00:12:57;1.90;99.90
61896;DHT22;47835;52.778;5.956;2023-11-18T00:15:23;2.00;99.90
61896;DHT22;47835;52.778;5.956;2023-11-18T00:17:49;2.00;99.90
61896;DHT22;47835;52.778;5.956;2023-11-18T00:20:14;2.00;99.90
61896;DHT22;47835;52.778;5.956;2023-11-18T00:22:41;2.00;99.90
61896;DHT22;47835;52.778;5.956;2023-11-18T00:25:08;2.10;99.90
61896;DHT22;47835;52.778;5.956;2023-11-18T00:27:34;2.20;99.90
61896;DHT22;47835;52.778;5.956;2023-11-18T00:30:04;2.20;99.90
61896;DHT22;47835;52.778;5.956;2023-11-18T00:32:39;2.20;99.90
61896;DHT22;47835;52.778;5.956;2023-11-18T00:35:05;2.20;99.90
61896;DHT22;47835;52.778;5.956;2023-11-18T00:37:31;2.30;99.90
61896;DHT22;47835;52.778;5.956;2023-11-18T00:39:57;2.40;99.90
61896;DHT22;47835;52.778;5.956;2023-11-18T00:42:23;2.40;99.90
61896;DHT22;47835;52.778;5.956;2023-11-18T00:44:48;2.40;99.90
61896;DHT22;47835;52.778;5.956;2023-11-18T00:47:14;2.50;99.90
61896;DHT22;47835;52.778;5.956;2023-11-18T00:49:40;2.60;99.90
61896;DHT22;47835;52.778;5.956;2023-11-18T00:52:06;2.90;99.90
61896;DHT22;47835;52.778;5.956;2023-11-18T00:54:31;3.00;99.90
61896;DHT22;47835;52.778;5.956;2023-11-18T00:56:57;3.00;99.90
61896;DHT22;47835;52.778;5.956;2023-11-18T00:59:23;3.10;99.90
61896;DHT22;47835;52.778;5.956;2023-11-18T01:01:48;3.10;99.90
61896;DHT22;47835;52.778;5.956;2023-11-18T01:04:14;3.00;99.90
61896;DHT22;47835;52.778;5.956;2023-11-18T01:06:41;3.00;99.90
61896;DHT22;47835;52.778;5.956;2023-11-18T01:09:08;2.90;99.90
61896;DHT22;47835;52.778;5.956;2023-11-18T01:11:35;2.80;99.90
61896;DHT22;47835;52.778;5.956;2023-11-18T01:14:01;2.80;99.90
61896;DHT22;47835;52.778;5.956;2023-11-18T01:16:27;2.70;99.90
61896;DHT22;47835;52.778;5.956;2023-11-18T01:18:54;2.70;99.90
61896;DHT22;47835;52.778;5.956;2023-11-18T01:21:20;2.70;99.90
61896;DHT22;47835;52.778;5.956;2023-11-18T01:23:45;2.70;99.90
61896;DHT22;47835;52.778;5.956;2023-11-18T01:26:11;2.70;99.90
61896;DHT22;47835;52.778;5.956;2023-11-18T01:28:38;2.70;99.90
61896;DHT22;47835;52.778;5.956;2023-11-18T01:31:08;2.70;99.90
61896;DHT22;47835;52.778;5.956;2023-11-18T01:33:44;2.80;99.90
61896;DHT22;47835;52.778;5.956;2023-11-18T01:36:11;2.90;99.90
61896;DHT22;47835;52.778;5.956;2023-11-18T01:38:37;3.00;99.90
61896;DHT22;47835;52.778;5.956;2023-11-18T01:41:04;3.10;99.90
61896;DHT22;47835;52.778;5.956;2023-11-18T01:43:30;3.40;99.90
61896;DHT22;47835;52.778;5.956;2023-11-18T01:45:59;3.40;99.90
61896;DHT22;47835;52.778;5.956;2023-11-18T01:48:27;3.40;99.90
61896;DHT22;47835;52.778;5.956;2023-11-18T01:50:55;3.50;99.90
61896;DHT22;47835;52.778;5.956;2023-11-18T01:53:23;3.60;99.90
61896;DHT22;47835;52.778;5.956;2023-11-18T01:55:49;3.70;99.90
61896;DHT22;47835;52.778;5.956;2023-11-18T01:58:16;3.80;99.90
61896;DHT22;47835;52.778;5.956;2023-11-18T02:00:45;3.90;99.90
61896;DHT22;47835;52.778;5.956;2023-11-18T02:03:15;4.10;99.90
61896;DHT22;47835;52.778;5.956;2023-11-18T02:05:40;4.10;99.90
61896;DHT22;47835;52.778;5.956;2023-11-18T02:08:08;4.00;99.90
61896;DHT22;47835;52.778;5.956;2023-11-18T02:10:35;4.00;99.90
61896;DHT22;47835;52.778;5.956;2023-11-18T02:13:29;4.10;99.90
61896;DHT22;47835;52.778;5.956;2023-11-18T02:15:56;4.10;99.90
61896;DHT22;47835;52.778;5.956;2023-11-18T02:18:24;4.10;99.90
61896;DHT22;47835;52.778;5.956;2023-11-18T02:20:50;4.10;99.90
61896;DHT22;47835;52.778;5.956;2023-11-18T02:23:17;4.10;99.90
61896;DHT22;47835;52.778;5.956;2023-11-18T02:25:45;4.10;99.90
61896;DHT22;47835;52.778;5.956;2023-11-18T02:28:10;4.20;99.90
61896;DHT22;47835;52.778;5.956;2023-11-18T02:30:36;4.20;99.90
61896;DHT22;47835;52.778;5.956;2023-11-18T02:33:07;4.20;99.90
61896;DHT22;47835;52.778;5.956;2023-11-18T02:36:09;4.30;99.90
61896;DHT22;47835;52.778;5.956;2023-11-18T02:38:37;4.20;99.90
61896;DHT22;47835;52.778;5.956;2023-11-18T02:41:10;4.30;99.90
61896;DHT22;47835;52.778;5.956;2023-11-18T02:43:39;4.40;99.90
61896;DHT22;47835;52.778;5.956;2023-11-18T02:46:09;4.30;99.90
61896;DHT22;47835;52.778;5.956;2023-11-18T02:48:34;4.30;99.90
61896;DHT22;47835;52.778;5.956;2023-11-18T02:51:01;4.30;99.90
61896;DHT22;47835;52.778;5.956;2023-11-18T02:53:27;4.30;99.90
61896;DHT22;47835;52.778;5.956;2023-11-18T02:55:53;4.30;99.90
61896;DHT22;47835;52.778;5.956;2023-11-18T02:58:19;4.30;99.90
61896;DHT22;47835;52.778;5.956;2023-11-18T03:00:45;4.20;99.90
61896;DHT22;47835;52.778;5.956;2023-11-18T03:03:11;4.20;99.90
61896;DHT22;47835;52.778;5.956;2023-11-18T03:05:37;4.10;99.90
61896;DHT22;47835;52.778;5.956;2023-11-18T03:08:03;4.10;99.90
61896;DHT22;47835;52.778;5.956;2023-11-18T03:10:32;4.10;99.90
61896;DHT22;47835;52.778;5.956;2023-11-18T03:13:00;4.00;99.90
61896;DHT22;47835;52.778;5.956;2023-11-18T03:15:26;4.00;99.90
61896;DHT22;47835;52.778;5.956;2023-11-18T03:17:52;4.00;99.90
61896;DHT22;47835;52.778;5.956;2023-11-18T03:20:20;3.90;99.90
61896;DHT22;47835;52.778;5.956;2023-11-18T03:22:46;3.90;99.90
61896;DHT22;47835;52.778;5.956;2023-11-18T03:25:13;3.90;99.90
61896;DHT22;47835;52.778;5.956;2023-11-18T03:27:38;3.90;99.90
61896;DHT22;47835;52.778;5.956;2023-11-18T03:30:05;3.90;99.90
61896;DHT22;47835;52.778;5.956;2023-11-18T03:32:32;3.90;99.90
61896;DHT22;47835;52.778;5.956;2023-11-18T03:34:58;3.90;99.90
61896;DHT22;47835;52.778;5.956;2023-11-18T03:37:26;3.80;99.90
61896;DHT22;47835;52.778;5.956;2023-11-18T03:39:52;3.80;99.90
61896;DHT22;47835;52.778;5.956;2023-11-18T03:42:18;3.80;99.90
61896;DHT22;47835;52.778;5.956;2023-11-18T03:44:44;3.80;99.90
61896;DHT22;47835;52.778;5.956;2023-11-18T03:47:13;3.80;99.90
61896;DHT22;47835;52.778;5.956;2023-11-18T03:49:40;3.70;99.90
61896;DHT22;47835;52.778;5.956;2023-11-18T03:52:05;3.70;99.90
61896;DHT22;47835;52.778;5.956;2023-11-18T03:54:31;3.70;99.90
61896;DHT22;47835;52.778;5.956;2023-11-18T03:56:57;3.70;99.90
61896;DHT22;47835;52.778;5.956;2023-11-18T03:59:22;3.70;99.90
61896;DHT22;47835;52.778;5.956;2023-11-18T04:01:48;3.60;99.90
61896;DHT22;47835;52.778;5.956;2023-11-18T04:04:16;3.70;99.90
61896;DHT22;47835;52.778;5.956;2023-11-18T04:06:42;3.60;99.90
61896;DHT22;47835;52.778;5.956;2023-11-18T04:09:08;3.60;99.90
61896;DHT22;47835;52.778;5.956;2023-11-18T04:11:35;3.60;99.90
61896;DHT22;47835;52.778;5.956;2023-11-18T04:14:01;3.60;99.90
61896;DHT22;47835;52.778;5.956;2023-11-18T04:16:28;3.60;99.90
61896;DHT22;47835;52.778;5.956;2023-11-18T04:18:54;3.60;99.90
61896;DHT22;47835;52.778;5.956;2023-11-18T04:21:20;3.60;99.90
61896;DHT22;47835;52.778;5.956;2023-11-18T04:23:45;3.60;99.90
61896;DHT22;47835;52.778;5.956;2023-11-18T04:26:12;3.60;99.90
61896;DHT22;47835;52.778;5.956;2023-11-18T04:28:38;3.70;99.90
61896;DHT22;47835;52.778;5.956;2023-11-18T04:31:04;3.70;99.90
61896;DHT22;47835;52.778;5.956;2023-11-18T04:33:32;3.80;99.90
61896;DHT22;47835;52.778;5.956;2023-11-18T04:35:58;3.70;99.90
61896;DHT22;47835;52.778;5.956;2023-11-18T04:38:24;3.80;99.90
61896;DHT22;47835;52.778;5.956;2023-11-18T04:40:53;3.80;99.90
61896;DHT22;47835;52.778;5.956;2023-11-18T04:43:20;3.80;99.90
61896;DHT22;47835;52.778;5.956;2023-11-18T04:45:46;3.80;99.90
61896;DHT22;47835;52.778;5.956;2023-11-18T04:48:12;3.90;99.90
61896;DHT22;47835;52.778;5.956;2023-11-18T04:50:41;3.90;99.90
61896;DHT22;47835;52.778;5.956;2023-11-18T04:53:07;4.00;99.90
61896;DHT22;47835;52.778;5.956;2023-11-18T04:55:37;4.00;99.90
61896;DHT22;47835;52.778;5.956;2023-11-18T04:58:03;4.10;99.90
61896;DHT22;47835;52.778;5.956;2023-11-18T05:00:34;4.10;99.90
61896;DHT22;47835;52.778;5.956;2023-11-18T05:03:00;4.10;99.90
61896;DHT22;47835;52.778;5.956;2023-11-18T05:05:26;4.20;99.90
61896;DHT22;47835;52.778;5.956;2023-11-18T05:07:52;4.20;99.90
61896;DHT22;47835;52.778;5.956;2023-11-18T05:10:17;4.30;99.90
61896;DHT22;47835;52.778;5.956;2023-11-18T05:12:44;4.30;99.90
61896;DHT22;47835;52.778;5.956;2023-11-18T05:15:10;4.30;99.90
61896;DHT22;47835;52.778;5.956;2023-11-18T05:17:36;4.40;99.90
61896;DHT22;47835;52.778;5.956;2023-11-18T05:20:06;4.40;99.90
61896;DHT22;47835;52.778;5.956;2023-11-18T05:22:35;4.40;99.90
61896;DHT22;47835;52.778;5.956;2023-11-18T05:25:05;4.40;99.90
61896;DHT22;47835;52.778;5.956;2023-11-18T05:27:31;4.50;99.90
61896;DHT22;47835;52.778;5.956;2023-11-18T05:29:57;4.50;99.90
61896;DHT22;47835;52.778;5.956;2023-11-18T05:32:27;4.50;99.90
61896;DHT22;47835;52.778;5.956;2023-11-18T05:34:53;4.50;99.90
61896;DHT22;47835;52.778;5.956;2023-11-18T05:37:20;4.50;99.90
61896;DHT22;47835;52.778;5.956;2023-11-18T05:39:46;4.50;99.90
61896;DHT22;47835;52.778;5.956;2023-11-18T05:42:14;4.50;99.90
61896;DHT22;47835;52.778;5.956;2023-11-18T05:44:41;4.50;99.90
61896;DHT22;47835;52.778;5.956;2023-11-18T05:47:08;4.60;99.90
61896;DHT22;47835;52.778;5.956;2023-11-18T05:49:37;4.70;99.90
61896;DHT22;47835;52.778;5.956;2023-11-18T05:52:02;4.60;99.90
61896;DHT22;47835;52.778;5.956;2023-11-18T05:54:28;4.60;99.90
61896;DHT22;47835;52.778;5.956;2023-11-18T05:56:53;4.70;99.90
61896;DHT22;47835;52.778;5.956;2023-11-18T05:59:19;4.80;99.90
61896;DHT22;47835;52.778;5.956;2023-11-18T06:01:45;4.80;99.90
61896;DHT22;47835;52.778;5.956;2023-11-18T06:04:13;4.80;99.90
61896;DHT22;47835;52.778;5.956;2023-11-18T06:06:39;4.80;99.90
61896;DHT22;47835;52.778;5.956;2023-11-18T06:09:04;4.80;99.90
61896;DHT22;47835;52.778;5.956;2023-11-18T06:11:30;4.80;99.90
61896;DHT22;47835;52.778;5.956;2023-11-18T06:13:57;4.90;99.90
61896;DHT22;47835;52.778;5.956;2023-11-18T06:16:24;4.90;99.90
61896;DHT22;47835;52.778;5.956;2023-11-18T06:18:52;5.00;99.90
61896;DHT22;47835;52.778;5.956;2023-11-18T06:21:20;5.00;99.90
61896;DHT22;47835;52.778;5.956;2023-11-18T06:23:46;5.00;99.90
61896;DHT22;47835;52.778;5.956;2023-11-18T06:26:13;5.10;99.90
61896;DHT22;47835;52.778;5.956;2023-11-18T06:28:40;5.00;99.90
61896;DHT22;47835;52.778;5.956;2023-11-18T06:31:06;5.00;99.90
61896;DHT22;47835;52.778;5.956;2023-11-18T06:33:42;5.00;99.90
61896;DHT22;47835;52.778;5.956;2023-11-18T06:38:43;5.10;99.90
61896;DHT22;47835;52.778;5.956;2023-11-18T06:41:12;5.10;99.90
61896;DHT22;47835;52.778;5.956;2023-11-18T06:43:39;5.20;99.90
61896;DHT22;47835;52.778;5.956;2023-11-18T06:46:22;5.20;99.90
61896;DHT22;47835;52.778;5.956;2023-11-18T06:48:53;5.20;99.90
61896;DHT22;47835;52.778;5.956;2023-11-18T06:51:23;5.30;99.90
61896;DHT22;47835;52.778;5.956;2023-11-18T06:53:50;5.30;99.90
61896;DHT22;47835;52.778;5.956;2023-11-18T06:56:16;5.40;99.90
61896;DHT22;47835;52.778;5.956;2023-11-18T06:58:42;5.40;99.90
61896;DHT22;47835;52.778;5.956;2023-11-18T07:01:08;5.30;99.90
61896;DHT22;47835;52.778;5.956;2023-11-18T07:03:35;5.40;99.90
61896;DHT22;47835;52.778;5.956;2023-11-18T07:06:02;5.40;99.90
61896;DHT22;47835;52.778;5.956;2023-11-18T07:08:28;5.40;99.90
61896;DHT22;47835;52.778;5.956;2023-11-18T07:10:53;5.40;99.90
61896;DHT22;47835;52.778;5.956;2023-11-18T07:13:19;5.40;99.90
61896;DHT22;47835;52.778;5.956;2023-11-18T07:15:49;5.40;99.90
61896;DHT22;47835;52.778;5.956;2023-11-18T07:18:15;5.40;99.90
61896;DHT22;47835;52.778;5.956;2023-11-18T07:20:42;5.40;99.90
61896;DHT22;47835;52.778;5.956;2023-11-18T07:23:07;5.40;99.90
61896;DHT22;47835;52.778;5.956;2023-11-18T07:25:34;5.40;99.90
61896;DHT22;47835;52.778;5.956;2023-11-18T07:28:00;5.50;99.90
61896;DHT22;47835;52.778;5.956;2023-11-18T07:30:26;5.40;99.90
61896;DHT22;47835;52.778;5.956;2023-11-18T07:32:51;5.40;99.90
61896;DHT22;47835;52.778;5.956;2023-11-18T07:35:17;5.50;99.90
61896;DHT22;47835;52.778;5.956;2023-11-18T07:37:43;5.50;99.90
61896;DHT22;47835;52.778;5.956;2023-11-18T07:40:09;5.50;99.90
61896;DHT22;47835;52.778;5.956;2023-11-18T07:42:37;5.50;99.90
61896;DHT22;47835;52.778;5.956;2023-11-18T07:45:04;5.50;99.90
61896;DHT22;47835;52.778;5.956;2023-11-18T07:47:35;5.50;99.90
61896;DHT22;47835;52.778;5.956;2023-11-18T07:50:01;5.50;99.90
61896;DHT22;47835;52.778;5.956;2023-11-18T07:52:29;5.50;99.90
61896;DHT22;47835;52.778;5.956;2023-11-18T07:54:55;5.50;99.90
61896;DHT22;47835;52.778;5.956;2023-11-18T07:57:20;5.50;99.90
61896;DHT22;47835;52.778;5.956;2023-11-18T07:59:46;5.60;99.90
61896;DHT22;47835;52.778;5.956;2023-11-18T08:02:12;5.60;99.90
61896;DHT22;47835;52.778;5.956;2023-11-18T08:04:40;5.60;99.90
61896;DHT22;47835;52.778;5.956;2023-11-18T08:07:07;5.60;99.90
61896;DHT22;47835;52.778;5.956;2023-11-18T08:09:35;5.60;99.90
61896;DHT22;47835;52.778;5.956;2023-11-18T08:12:05;5.60;99.90
61896;DHT22;47835;52.778;5.956;2023-11-18T08:14:31;5.70;99.90
61896;DHT22;47835;52.778;5.956;2023-11-18T08:16:57;5.70;99.90
61896;DHT22;47835;52.778;5.956;2023-11-18T08:19:25;5.70;99.90
61896;DHT22;47835;52.778;5.956;2023-11-18T08:21:51;5.70;99.90
61896;DHT22;47835;52.778;5.956;2023-11-18T08:24:17;5.70;99.90
61896;DHT22;47835;52.778;5.956;2023-11-18T08:26:43;5.70;99.90
61896;DHT22;47835;52.778;5.956;2023-11-18T08:29:08;5.80;99.90
61896;DHT22;47835;52.778;5.956;2023-11-18T08:31:34;5.80;99.90
61896;DHT22;47835;52.778;5.956;2023-11-18T08:34:00;5.80;99.90
61896;DHT22;47835;52.778;5.956;2023-11-18T08:36:26;5.80;99.90
61896;DHT22;47835;52.778;5.956;2023-11-18T08:38:53;5.80;99.90
61896;DHT22;47835;52.778;5.956;2023-11-18T08:41:19;5.80;99.90
61896;DHT22;47835;52.778;5.956;2023-11-18T08:43:45;5.80;99.90
61896;DHT22;47835;52.778;5.956;2023-11-18T08:46:14;5.80;99.90
61896;DHT22;47835;52.778;5.956;2023-11-18T08:48:40;5.90;99.90
61896;DHT22;47835;52.778;5.956;2023-11-18T08:51:10;5.90;99.90
61896;DHT22;47835;52.778;5.956;2023-11-18T08:53:36;5.80;99.90
61896;DHT22;47835;52.778;5.956;2023-11-18T08:56:09;5.80;99.90
61896;DHT22;47835;52.778;5.956;2023-11-18T08:58:41;5.90;99.90
61896;DHT22;47835;52.778;5.956;2023-11-18T09:01:07;5.90;99.90
61896;DHT22;47835;52.778;5.956;2023-11-18T09:03:39;5.80;99.90
61896;DHT22;47835;52.778;5.956;2023-11-18T09:06:17;5.80;99.90
61896;DHT22;47835;52.778;5.956;2023-11-18T09:08:45;5.80;99.90
61896;DHT22;47835;52.778;5.956;2023-11-18T09:11:13;5.90;99.90
61896;DHT22;47835;52.778;5.956;2023-11-18T09:13:47;5.90;99.90
61896;DHT22;47835;52.778;5.956;2023-11-18T09:16:20;5.90;99.90
61896;DHT22;47835;52.778;5.956;2023-11-18T09:18:55;5.90;99.90
61896;DHT22;47835;52.778;5.956;2023-11-18T09:21:21;5.90;99.90
61896;DHT22;47835;52.778;5.956;2023-11-18T09:23:55;6.00;99.90
61896;DHT22;47835;52.778;5.956;2023-11-18T09:26:22;6.00;99.90
61896;DHT22;47835;52.778;5.956;2023-11-18T09:28:48;6.00;99.90
61896;DHT22;47835;52.778;5.956;2023-11-18T09:31:15;6.00;99.90
61896;DHT22;47835;52.778;5.956;2023-11-18T09:33:42;6.00;99.90
61896;DHT22;47835;52.778;5.956;2023-11-18T09:36:17;6.00;99.90
61896;DHT22;47835;52.778;5.956;2023-11-18T09:38:43;6.00;99.90
61896;DHT22;47835;52.778;5.956;2023-11-18T09:41:12;6.00;99.90
61896;DHT22;47835;52.778;5.956;2023-11-18T09:43:39;5.90;99.90
61896;DHT22;47835;52.778;5.956;2023-11-18T09:46:13;5.90;99.90
61896;DHT22;47835;52.778;5.956;2023-11-18T09:48:44;6.00;99.90
61896;DHT22;47835;52.778;5.956;2023-11-18T09:51:20;6.00;99.90
61896;DHT22;47835;52.778;5.956;2023-11-18T09:53:51;6.00;99.90
61896;DHT22;47835;52.778;5.956;2023-11-18T09:56:38;6.00;99.90
61896;DHT22;47835;52.778;5.956;2023-11-18T09:59:23;6.00;99.90
61896;DHT22;47835;52.778;5.956;2023-11-18T10:01:53;6.00;99.90
61896;DHT22;47835;52.778;5.956;2023-11-18T10:04:23;6.00;99.90
61896;DHT22;47835;52.778;5.956;2023-11-18T10:06:53;6.00;99.90
61896;DHT22;47835;52.778;5.956;2023-11-18T10:09:28;6.00;99.90
61896;DHT22;47835;52.778;5.956;2023-11-18T10:11:54;6.00;99.90
61896;DHT22;47835;52.778;5.956;2023-11-18T10:14:28;6.10;99.90
61896;DHT22;47835;52.778;5.956;2023-11-18T10:16:55;6.00;99.90
61896;DHT22;47835;52.778;5.956;2023-11-18T10:19:20;6.10;99.90
61896;DHT22;47835;52.778;5.956;2023-11-18T10:21:47;6.00;99.90
61896;DHT22;47835;52.778;5.956;2023-11-18T10:24:15;6.00;99.90
61896;DHT22;47835;52.778;5.956;2023-11-18T10:26:54;6.10;99.90
61896;DHT22;47835;52.778;5.956;2023-11-18T10:29:26;6.10;99.90
61896;DHT22;47835;52.778;5.956;2023-11-18T10:32:07;6.10;99.90
61896;DHT22;47835;52.778;5.956;2023-11-18T10:34:35;6.10;99.90
61896;DHT22;47835;52.778;5.956;2023-11-18T10:37:05;6.10;99.90
61896;DHT22;47835;52.778;5.956;2023-11-18T10:39:32;6.10;99.90
61896;DHT22;47835;52.778;5.956;2023-11-18T10:42:01;6.10;99.90
61896;DHT22;47835;52.778;5.956;2023-11-18T10:44:27;6.10;99.90
61896;DHT22;47835;52.778;5.956;2023-11-18T10:46:55;6.10;99.90
61896;DHT22;47835;52.778;5.956;2023-11-18T10:49:29;6.10;99.90
61896;DHT22;47835;52.778;5.956;2023-11-18T10:52:02;6.10;99.90
61896;DHT22;47835;52.778;5.956;2023-11-18T10:54:32;6.10;99.90
61896;DHT22;47835;52.778;5.956;2023-11-18T10:57:01;6.10;99.90
61896;DHT22;47835;52.778;5.956;2023-11-18T10:59:32;6.10;99.90
61896;DHT22;47835;52.778;5.956;2023-11-18T11:01:58;6.10;99.90
61896;DHT22;47835;52.778;5.956;2023-11-18T11:04:23;6.20;99.90
61896;DHT22;47835;52.778;5.956;2023-11-18T11:06:50;6.20;99.90
61896;DHT22;47835;52.778;5.956;2023-11-18T11:09:25;6.20;99.90
61896;DHT22;47835;52.778;5.956;2023-11-18T11:11:56;6.20;99.90
61896;DHT22;47835;52.778;5.956;2023-11-18T11:14:26;6.20;99.90
61896;DHT22;47835;52.778;5.956;2023-11-18T11:17:07;6.20;99.90
61896;DHT22;47835;52.778;5.956;2023-11-18T11:22:17;6.20;99.90
61896;DHT22;47835;52.778;5.956;2023-11-18T11:25:09;6.30;99.90
61896;DHT22;47835;52.778;5.956;2023-11-18T11:27:54;6.30;99.90
61896;DHT22;47835;52.778;5.956;2023-11-18T11:35:40;6.30;99.90
61896;DHT22;47835;52.778;5.956;2023-11-18T11:38:12;6.30;99.90
61896;DHT22;47835;52.778;5.956;2023-11-18T11:40:41;6.20;99.90
61896;DHT22;47835;52.778;5.956;2023-11-18T11:43:09;6.30;99.90
61896;DHT22;47835;52.778;5.956;2023-11-18T11:45:37;6.30;99.90
61896;DHT22;47835;52.778;5.956;2023-11-18T11:48:06;6.20;99.90
61896;DHT22;47835;52.778;5.956;2023-11-18T11:54:01;6.30;99.90
61896;DHT22;47835;52.778;5.956;2023-11-18T11:56:56;6.30;99.90
61896;DHT22;47835;52.778;5.956;2023-11-18T12:02:13;6.30;99.90
61896;DHT22;47835;52.778;5.956;2023-11-18T12:04:51;6.30;99.90
61896;DHT22;47835;52.778;5.956;2023-11-18T12:07:20;6.30;99.90
61896;DHT22;47835;52.778;5.956;2023-11-18T12:09:51;6.30;99.90
61896;DHT22;47835;52.778;5.956;2023-11-18T12:12:23;6.30;99.90
61896;DHT22;47835;52.778;5.956;2023-11-18T12:14:57;6.40;99.90
61896;DHT22;47835;52.778;5.956;2023-11-18T12:20:42;6.30;99.90
61896;DHT22;47835;52.778;5.956;2023-11-18T12:23:10;6.40;99.90
61896;DHT22;47835;52.778;5.956;2023-11-18T12:25:46;6.30;99.90
61896;DHT22;47835;52.778;5.956;2023-11-18T12:28:17;6.30;99.90
61896;DHT22;47835;52.778;5.956;2023-11-18T12:30:52;6.30;99.90
61896;DHT22;47835;52.778;5.956;2023-11-18T12:33:24;6.30;99.90
61896;DHT22;47835;52.778;5.956;2023-11-18T12:51:18;6.40;99.90
61896;DHT22;47835;52.778;5.956;2023-11-18T12:54:01;6.40;99.90
61896;DHT22;47835;52.778;5.956;2023-11-18T13:06:54;6.50;99.90
61896;DHT22;47835;52.778;5.956;2023-11-18T13:09:22;6.50;99.90
61896;DHT22;47835;52.778;5.956;2023-11-18T13:11:58;6.60;99.90
61896;DHT22;47835;52.778;5.956;2023-11-18T13:14:27;6.60;99.90
61896;DHT22;47835;52.778;5.956;2023-11-18T13:16:54;6.60;99.90
61896;DHT22;47835;52.778;5.956;2023-11-18T13:19:26;6.60;99.90
61896;DHT22;47835;52.778;5.956;2023-11-18T13:21:59;6.60;99.90
61896;DHT22;47835;52.778;5.956;2023-11-18T13:24:28;6.70;99.90
61896;DHT22;47835;52.778;5.956;2023-11-18T13:26:55;6.70;99.90
61896;DHT22;47835;52.778;5.956;2023-11-18T13:29:22;6.70;99.90
61896;DHT22;47835;52.778;5.956;2023-11-18T13:31:49;6.70;99.90
61896;DHT22;47835;52.778;5.956;2023-11-18T13:34:14;6.80;99.90
61896;DHT22;47835;52.778;5.956;2023-11-18T13:36:42;6.70;99.90
61896;DHT22;47835;52.778;5.956;2023-11-18T13:39:18;6.80;99.90
61896;DHT22;47835;52.778;5.956;2023-11-18T13:41:44;6.80;99.90
61896;DHT22;47835;52.778;5.956;2023-11-18T13:44:33;6.80;99.90
61896;DHT22;47835;52.778;5.956;2023-11-18T13:47:06;6.80;99.90
61896;DHT22;47835;52.778;5.956;2023-11-18T13:49:33;6.80;99.90
61896;DHT22;47835;52.778;5.956;2023-11-18T13:52:00;6.80;99.90
61896;DHT22;47835;52.778;5.956;2023-11-18T13:54:28;6.80;99.90
61896;DHT22;47835;52.778;5.956;2023-11-18T13:56:55;6.80;99.90
61896;DHT22;47835;52.778;5.956;2023-11-18T13:59:27;6.90;99.90
61896;DHT22;47835;52.778;5.956;2023-11-18T14:01:53;6.90;99.90
61896;DHT22;47835;52.778;5.956;2023-11-18T14:04:23;6.90;99.90
61896;DHT22;47835;52.778;5.956;2023-11-18T14:06:52;6.90;99.90
61896;DHT22;47835;52.778;5.956;2023-11-18T14:09:19;6.90;99.90
61896;DHT22;47835;52.778;5.956;2023-11-18T14:11:47;6.90;99.90
61896;DHT22;47835;52.778;5.956;2023-11-18T14:14:14;6.90;99.90
61896;DHT22;47835;52.778;5.956;2023-11-18T14:16:40;6.90;99.90
61896;DHT22;47835;52.778;5.956;2023-11-18T14:19:06;6.90;99.90
61896;DHT22;47835;52.778;5.956;2023-11-18T14:21:32;7.00;99.90
61896;DHT22;47835;52.778;5.956;2023-11-18T14:23:57;7.00;99.90
61896;DHT22;47835;52.778;5.956;2023-11-18T14:26:28;7.00;99.90
61896;DHT22;47835;52.778;5.956;2023-11-18T14:28:54;7.00;99.90
61896;DHT22;47835;52.778;5.956;2023-11-18T14:31:21;7.00;99.90
61896;DHT22;47835;52.778;5.956;2023-11-18T14:33:47;7.10;99.90
61896;DHT22;47835;52.778;5.956;2023-11-18T14:36:14;7.10;99.90
61896;DHT22;47835;52.778;5.956;2023-11-18T14:38:40;7.10;99.90
61896;DHT22;47835;52.778;5.956;2023-11-18T14:41:06;7.10;99.90
61896;DHT22;47835;52.778;5.956;2023-11-18T14:43:33;7.10;99.90
61896;DHT22;47835;52.778;5.956;2023-11-18T14:46:00;7.10;99.90
61896;DHT22;47835;52.778;5.956;2023-11-18T14:48:25;7.10;99.90
61896;DHT22;47835;52.778;5.956;2023-11-18T14:50:51;7.10;99.90
61896;DHT22;47835;52.778;5.956;2023-11-18T14:53:16;7.10;99.90
61896;DHT22;47835;52.778;5.956;2023-11-18T14:55:42;7.10;99.90
61896;DHT22;47835;52.778;5.956;2023-11-18T14:58:13;7.10;99.90
61896;DHT22;47835;52.778;5.956;2023-11-18T15:00:39;7.10;99.90
61896;DHT22;47835;52.778;5.956;2023-11-18T15:03:05;7.10;99.90
61896;DHT22;47835;52.778;5.956;2023-11-18T15:05:31;7.10;99.90
61896;DHT22;47835;52.778;5.956;2023-11-18T15:07:57;7.10;99.90
61896;DHT22;47835;52.778;5.956;2023-11-18T15:10:27;7.10;99.90
61896;DHT22;47835;52.778;5.956;2023-11-18T15:12:57;7.20;99.90
61896;DHT22;47835;52.778;5.956;2023-11-18T15:15:28;7.10;99.90
61896;DHT22;47835;52.778;5.956;2023-11-18T15:17:58;7.10;99.90
61896;DHT22;47835;52.778;5.956;2023-11-18T15:20:25;7.10;99.90
61896;DHT22;47835;52.778;5.956;2023-11-18T15:22:51;7.10;99.90
61896;DHT22;47835;52.778;5.956;2023-11-18T15:25:16;7.10;99.90
61896;DHT22;47835;52.778;5.956;2023-11-18T15:27:43;7.10;99.90
61896;DHT22;47835;52.778;5.956;2023-11-18T15:30:11;7.20;99.90
61896;DHT22;47835;52.778;5.956;2023-11-18T15:32:41;7.20;99.90
61896;DHT22;47835;52.778;5.956;2023-11-18T15:35:08;7.20;99.90
61896;DHT22;47835;52.778;5.956;2023-11-18T15:37:38;7.10;99.90
61896;DHT22;47835;52.778;5.956;2023-11-18T15:40:09;7.10;99.90
61896;DHT22;47835;52.778;5.956;2023-11-18T15:42:43;7.20;99.90
61896;DHT22;47835;52.778;5.956;2023-11-18T15:45:15;7.20;99.90
61896;DHT22;47835;52.778;5.956;2023-11-18T15:47:42;7.20;99.90
61896;DHT22;47835;52.778;5.956;2023-11-18T15:50:10;7.20;99.90
61896;DHT22;47835;52.778;5.956;2023-11-18T15:52:48;7.20;99.90
61896;DHT22;47835;52.778;5.956;2023-11-18T15:55:15;7.20;99.90
61896;DHT22;47835;52.778;5.956;2023-11-18T15:57:44;7.20;99.90
61896;DHT22;47835;52.778;5.956;2023-11-18T16:00:12;7.20;99.90
61896;DHT22;47835;52.778;5.956;2023-11-18T16:03:05;7.20;99.90
61896;DHT22;47835;52.778;5.956;2023-11-18T16:05:36;7.20;99.90
61896;DHT22;47835;52.778;5.956;2023-11-18T16:08:13;7.20;99.90
61896;DHT22;47835;52.778;5.956;2023-11-18T16:10:41;7.20;99.90
61896;DHT22;47835;52.778;5.956;2023-11-18T16:13:32;7.30;99.90
61896;DHT22;47835;52.778;5.956;2023-11-18T16:16:02;7.30;99.90
61896;DHT22;47835;52.778;5.956;2023-11-18T16:18:28;7.20;99.90
61896;DHT22;47835;52.778;5.956;2023-11-18T16:21:22;7.30;99.90
61896;DHT22;47835;52.778;5.956;2023-11-18T16:23:53;7.30;99.90
61896;DHT22;47835;52.778;5.956;2023-11-18T16:26:20;7.30;99.90
61896;DHT22;47835;52.778;5.956;2023-11-18T16:28:48;7.30;99.90
61896;DHT22;47835;52.778;5.956;2023-11-18T16:31:20;7.30;99.90
61896;DHT22;47835;52.778;5.956;2023-11-18T16:34:01;7.30;99.90
61896;DHT22;47835;52.778;5.956;2023-11-18T16:36:46;7.30;99.90
61896;DHT22;47835;52.778;5.956;2023-11-18T16:39:25;7.30;99.90